Time;durP1;ratioP1;P1;durP2;ratioP2;P2;SDS_P1;SDS_P2;PMS_P1;PMS_P2;Temp;Humidity;BMP_temperature;BMP_pressure;BME280_temperature;BME280_humidity;BME280_pressure;Samples;Min_cycle;Max_cycle;Signal;HPM_P1;HPM_P2
2023/12/13 00:01:37;;;;;;;10.77;7.45;;;;;;;7.18;63.38;98707.56;5030945;28;20061;-73
2023/12/13 00:04:03;;;;;;;11.93;7.55;;;;;;;7.22;63.19;98711.59;5030977;28;20037;-74
2023/12/13 00:06:28;;;;;;;10.90;7.10;;;;;;;7.18;63.62;98693.72;5014722;28;20029;-74
2023/12/13 00:08:54;;;;;;;10.98;7.32;;;;;;;7.15;63.40;98686.16;5014794;28;20052;-74
2023/12/13 00:11:20;;;;;;;10.63;7.38;;;;;;;7.18;63.58;98696.31;5014772;28;20089;-74
2023/12/13 00:13:45;;;;;;;10.38;6.88;;;;;;;7.16;63.81;98704.19;5031844;28;20037;-73
2023/12/13 00:16:11;;;;;;;9.70;6.88;;;;;;;7.14;63.59;98700.88;5030462;28;20038;-74
2023/12/13 00:18:36;;;;;;;9.30;6.80;;;;;;;7.09;63.56;98686.53;5032042;28;20030;-73
2023/12/13 00:21:02;;;;;;;9.98;6.90;;;;;;;7.11;63.42;98690.69;5014306;28;20033;-74
2023/12/13 00:23:28;;;;;;;10.57;7.05;;;;;;;7.09;63.54;98686.53;5014834;28;20060;-74
2023/12/13 00:25:53;;;;;;;9.05;6.72;;;;;;;7.12;63.82;98704.50;5032008;28;20516;-75
2023/12/13 00:28:19;;;;;;;10.30;7.00;;;;;;;7.10;63.53;98704.59;5030795;28;20036;-74
2023/12/13 00:30:45;;;;;;;9.60;6.55;;;;;;;7.10;63.34;98714.13;5014167;28;20037;-74
2023/12/13 00:33:11;;;;;;;12.75;6.78;;;;;;;7.07;63.59;98713.41;5014366;28;20060;-74
2023/12/13 00:35:37;;;;;;;10.50;7.00;;;;;;;7.05;63.67;98722.22;5031573;28;20053;-75
2023/12/13 00:38:03;;;;;;;10.98;6.88;;;;;;;7.00;63.28;98706.91;5018049;28;20045;-73
2023/12/13 00:40:29;;;;;;;10.38;6.85;;;;;;;7.04;63.73;98713.59;5018400;28;20408;-73
2023/12/13 00:42:55;;;;;;;11.38;6.90;;;;;;;7.00;63.87;98704.31;5001840;28;20481;-74
2023/12/13 00:45:21;;;;;;;9.48;6.60;;;;;;;7.04;63.70;98711.00;5017905;28;20026;-75
2023/12/13 00:47:47;;;;;;;11.63;7.28;;;;;;;7.05;63.21;98709.22;5017591;28;20555;-74
2023/12/13 00:50:12;;;;;;;14.45;7.80;;;;;;;7.00;63.37;98714.72;5035364;28;20555;-73
2023/12/13 00:52:38;;;;;;;14.30;7.88;;;;;;;6.98;63.68;98710.56;5018205;28;20036;-75
2023/12/13 00:55:04;;;;;;;10.98;6.88;;;;;;;7.01;63.59;98707.78;5017652;28;20041;-74
2023/12/13 00:57:33;;;;;;;10.57;6.95;;;;;;;6.95;63.72;98701.19;5017461;28;20057;-74
2023/12/13 00:59:58;;;;;;;12.07;6.93;;;;;;;6.93;63.79;98703.06;5017471;28;20095;-74
2023/12/13 01:02:24;;;;;;;14.18;8.00;;;;;;;6.96;63.81;98707.19;5034012;28;20033;-74
2023/12/13 01:04:50;;;;;;;10.55;7.13;;;;;;;6.91;63.25;98712.72;5017400;28;20109;-74
2023/12/13 01:07:15;;;;;;;12.82;7.80;;;;;;;6.96;63.74;98723.63;5017240;28;20109;-75
2023/12/13 01:09:41;;;;;;;12.82;7.85;;;;;;;6.94;63.67;98727.22;5034186;28;20099;-75
2023/12/13 01:12:06;;;;;;;11.27;7.30;;;;;;;6.92;63.29;98740.31;5017646;28;20370;-73
2023/12/13 01:14:35;;;;;;;12.15;7.45;;;;;;;6.92;63.38;98753.28;5000879;28;20052;-74
2023/12/13 01:17:01;;;;;;;10.60;7.25;;;;;;;6.91;63.59;98738.66;5033722;28;20091;-74
2023/12/13 01:19:26;;;;;;;12.68;7.43;;;;;;;6.91;63.50;98719.63;5000748;28;20539;-74
2023/12/13 01:21:52;;;;;;;11.25;7.32;;;;;;;6.90;63.98;98698.06;5001438;28;20029;-74
2023/12/13 01:24:17;;;;;;;13.50;7.75;;;;;;;6.91;64.09;98673.78;5033837;28;20041;-74
2023/12/13 01:26:43;;;;;;;12.68;7.63;;;;;;;6.90;63.53;98672.09;5033365;28;20068;-74
2023/12/13 01:29:08;;;;;;;15.90;8.48;;;;;;;6.90;63.87;98679.06;5017071;28;20098;-73
2023/12/13 01:31:37;;;;;;;13.25;7.80;;;;;;;6.88;63.47;98679.16;5033479;28;20076;-75
2023/12/13 01:34:03;;;;;;;11.85;7.72;;;;;;;6.87;63.80;98667.09;5033395;28;20076;-74
2023/12/13 01:36:28;;;;;;;11.18;7.72;;;;;;;6.82;63.53;98651.81;5033217;28;20543;-73
2023/12/13 01:38:54;;;;;;;11.60;7.88;;;;;;;6.81;63.51;98662.28;5016727;28;20481;-75
2023/12/13 01:41:19;;;;;;;12.80;8.00;;;;;;;6.83;63.31;98668.22;5017097;28;20040;-74
2023/12/13 01:43:45;;;;;;;12.88;8.10;;;;;;;6.84;63.30;98668.13;5033286;28;20152;-75
2023/12/13 01:46:12;;;;;;;13.20;7.38;;;;;;;6.79;63.39;98651.19;5032304;28;20504;-74
2023/12/13 01:48:37;;;;;;;11.02;7.43;;;;;;;6.80;63.67;98653.69;5033165;28;20472;-75
2023/12/13 01:51:03;;;;;;;12.43;7.57;;;;;;;6.74;63.73;98651.47;5032955;28;20046;-74
2023/12/13 01:53:29;;;;;;;13.10;8.13;;;;;;;6.77;63.79;98661.66;5016649;28;20179;-74
2023/12/13 01:55:54;;;;;;;12.40;7.90;;;;;;;6.78;63.33;98667.66;5000178;28;20146;-75
2023/12/13 01:58:20;;;;;;;12.48;7.82;;;;;;;6.78;63.65;98668.50;5016318;28;20029;-75
2023/12/13 02:00:45;;;;;;;12.32;7.68;;;;;;;6.73;63.64;98660.16;5000252;28;20025;-73
2023/12/13 02:03:11;;;;;;;12.02;8.00;;;;;;;6.76;63.67;98672.13;4999987;28;20029;-75
2023/12/13 02:05:37;;;;;;;13.63;8.50;;;;;;;6.75;63.75;98666.09;5016447;28;20021;-75
2023/12/13 02:08:03;;;;;;;11.57;7.82;;;;;;;6.74;63.75;98664.44;4999994;28;20045;-75
2023/12/13 02:10:28;;;;;;;12.90;8.30;;;;;;;6.67;63.76;98661.41;5016323;28;20044;-73
2023/12/13 02:12:54;;;;;;;13.95;8.23;;;;;;;6.73;63.79;98656.75;5032635;28;20030;-75
2023/12/13 02:15:20;;;;;;;14.15;8.52;;;;;;;6.72;63.93;98652.47;5016377;28;20064;-74
2023/12/13 02:17:52;;;;;;;11.13;7.45;;;;;;;6.68;63.24;98644.88;5015987;28;20209;-74
2023/12/13 02:20:21;;;;;;;12.45;7.57;;;;;;;6.68;63.61;98644.88;5016145;28;20032;-74
2023/12/13 02:22:46;;;;;;;12.73;8.27;;;;;;;6.66;63.58;98640.72;5016336;28;20171;-74
2023/12/13 02:25:15;;;;;;;12.63;8.27;;;;;;;6.60;63.70;98630.72;5033666;28;20029;-75
2023/12/13 02:27:43;;;;;;;;;;;;;;;6.64;63.57;98633.03;5016475;28;20034;-73
2023/12/13 02:30:09;;;;;;;14.35;8.07;;;;;;;6.60;63.49;98639.34;5032369;28;19916;-74
2023/12/13 02:32:36;;;;;;;13.40;8.23;;;;;;;6.60;64.29;98641.94;5015676;28;20037;-75
2023/12/13 02:35:03;;;;;;;13.80;7.75;;;;;;;6.61;63.81;98630.66;5031601;28;20578;-74
2023/12/13 02:37:28;;;;;;;13.05;8.07;;;;;;;6.61;63.36;98630.66;5016099;28;20027;-74
2023/12/13 02:39:55;;;;;;;12.75;8.20;;;;;;;6.62;63.34;98642.66;5032255;28;20095;-74
2023/12/13 02:42:21;;;;;;;14.30;8.02;;;;;;;6.61;64.41;98641.00;5032462;28;20033;-74
2023/12/13 02:44:46;;;;;;;11.65;8.18;;;;;;;6.61;63.61;98643.59;5015408;28;20033;-74
2023/12/13 02:47:12;;;;;;;14.27;7.97;;;;;;;6.62;63.84;98647.03;5032013;28;20056;-75
2023/12/13 02:49:37;;;;;;;15.45;8.40;;;;;;;6.61;63.59;98646.19;4999353;28;20077;-75
2023/12/13 02:52:03;;;;;;;13.98;8.65;;;;;;;6.62;63.98;98649.63;5032003;28;20029;-74
2023/12/13 02:54:29;;;;;;;12.50;8.18;;;;;;;6.58;63.76;98637.75;5015697;28;20030;-74
2023/12/13 02:56:55;;;;;;;13.40;8.57;;;;;;;6.59;63.82;98645.44;5014167;28;20455;-75
2023/12/13 02:59:20;;;;;;;11.10;7.93;;;;;;;6.64;64.02;98653.81;5013829;28;20043;-74
2023/12/13 03:01:46;;;;;;;13.02;8.35;;;;;;;6.64;64.40;98655.53;5032695;28;20025;-74
2023/12/13 03:04:12;;;;;;;14.73;8.50;;;;;;;6.64;64.03;98658.13;5033380;28;20492;-73
2023/12/13 03:06:37;;;;;;;13.63;8.85;;;;;;;6.64;64.36;98647.75;5031257;28;20037;-74
2023/12/13 03:09:03;;;;;;;14.23;8.70;;;;;;;6.64;63.58;98652.94;5015427;28;20485;-74
2023/12/13 03:11:28;;;;;;;13.77;8.52;;;;;;;6.61;63.75;98640.16;5015281;28;20401;-75
2023/12/13 03:13:54;;;;;;;11.60;8.45;;;;;;;6.65;63.79;98645.06;5014937;28;20045;-74
2023/12/13 03:16:19;;;;;;;12.80;7.90;;;;;;;6.66;63.92;98648.53;5031378;28;20045;-74
2023/12/13 03:18:45;;;;;;;14.73;8.10;;;;;;;6.65;63.84;98644.25;5014974;28;20566;-75
2023/12/13 03:21:10;;;;;;;12.90;8.10;;;;;;;6.63;63.96;98631.38;5014875;28;20555;-74
2023/12/13 03:23:36;;;;;;;11.88;7.82;;;;;;;6.64;63.78;98630.44;5014905;28;20116;-75
2023/12/13 03:26:01;;;;;;;12.57;8.18;;;;;;;6.60;63.93;98621.19;5014929;28;20122;-74
2023/12/13 03:28:27;;;;;;;13.52;8.45;;;;;;;6.64;63.81;98629.59;5014886;28;20108;-74
2023/12/13 03:30:52;;;;;;;13.32;7.85;;;;;;;6.65;63.88;98637.28;5031859;28;20033;-73
2023/12/13 03:33:18;;;;;;;11.13;7.55;;;;;;;6.65;63.67;98639.06;5031086;28;20041;-74
2023/12/13 03:35:43;;;;;;;13.63;8.38;;;;;;;6.60;63.97;98628.97;5032489;28;20076;-74
2023/12/13 03:38:09;;;;;;;12.52;8.02;;;;;;;6.65;63.93;98642.47;5031153;28;20075;-74
2023/12/13 03:40:34;;;;;;;13.48;8.13;;;;;;;6.60;63.78;98626.38;5031223;28;20079;-75
2023/12/13 03:43:00;;;;;;;13.82;8.00;;;;;;;6.65;63.56;98646.84;5029393;28;20029;-74
2023/12/13 03:45:26;;;;;;;12.63;7.68;;;;;;;6.65;64.19;98652.84;5031335;28;20088;-74
2023/12/13 03:47:51;;;;;;;13.27;7.95;;;;;;;6.65;63.77;98655.44;5031058;28;20021;-74
2023/12/13 03:50:17;;;;;;;13.00;8.02;;;;;;;6.67;63.78;98652.75;5012373;28;20416;-74
2023/12/13 03:52:42;;;;;;;10.68;7.40;;;;;;;6.68;63.58;98646.66;4995024;28;20083;-74
2023/12/13 03:55:08;;;;;;;12.07;7.55;;;;;;;6.66;64.12;98635.56;5011290;28;20061;-74
2023/12/13 03:57:33;;;;;;;12.75;8.02;;;;;;;6.62;64.23;98624.50;5011256;28;20452;-75
2023/12/13 03:59:59;;;;;;;10.98;7.22;;;;;;;6.62;63.74;98623.69;4994659;28;20493;-75
2023/12/13 04:02:24;;;;;;;11.98;7.20;;;;;;;6.64;63.42;98614.03;5011741;28;20062;-76
2023/12/13 04:04:50;;;;;;;13.48;8.10;;;;;;;6.64;64.15;98608.84;4978872;28;20486;-74
2023/12/13 04:07:15;;;;;;;12.52;7.30;;;;;;;6.64;63.43;98612.28;4978903;28;20124;-75
2023/12/13 04:09:41;;;;;;;11.15;6.72;;;;;;;6.64;63.61;98633.03;5013796;28;20088;-74
2023/12/13 04:12:06;;;;;;;10.98;7.10;;;;;;;6.61;63.83;98638.41;5015026;28;20030;-74
2023/12/13 04:14:32;;;;;;;11.07;6.68;;;;;;;6.66;63.60;98648.53;5014787;28;20036;-74
2023/12/13 04:16:57;;;;;;;13.95;6.95;;;;;;;6.67;63.90;98651.03;5018310;28;20041;-74
2023/12/13 04:19:23;;;;;;;12.43;6.93;;;;;;;6.64;63.40;98639.97;5017667;28;20049;-75
2023/12/13 04:21:48;;;;;;;12.27;7.80;;;;;;;6.69;63.17;98643.13;5034385;28;20037;-75
2023/12/13 04:24:14;;;;;;;10.73;7.15;;;;;;;6.72;63.69;98639.50;5036144;28;20439;-74
2023/12/13 04:26:40;;;;;;;10.30;6.40;;;;;;;6.73;63.37;98642.00;5034212;28;20034;-75
2023/12/13 04:29:05;;;;;;;9.73;6.93;;;;;;;6.73;63.49;98642.00;5034467;28;20041;-74
2023/12/13 04:31:31;;;;;;;12.30;7.47;;;;;;;6.74;63.41;98643.69;5034001;28;20567;-75
2023/12/13 04:33:56;;;;;;;11.63;6.90;;;;;;;6.70;63.62;98637.84;5017897;28;20140;-74
2023/12/13 04:36:22;;;;;;;12.18;6.93;;;;;;;6.76;63.70;98641.00;5000341;28;20398;-73
2023/12/13 04:38:48;;;;;;;11.95;6.97;;;;;;;6.76;63.45;98636.63;5034533;28;20041;-74
2023/12/13 04:41:13;;;;;;;11.18;7.05;;;;;;;6.74;63.77;98630.72;5017707;28;20033;-75
2023/12/13 04:43:39;;;;;;;10.82;6.90;;;;;;;6.76;63.49;98638.41;5017328;28;20393;-74
2023/12/13 04:46:05;;;;;;;11.45;7.18;;;;;;;6.72;63.89;98637.75;5014167;28;20033;-75
2023/12/13 04:48:30;;;;;;;10.82;6.82;;;;;;;6.71;63.59;98628.31;5034305;28;20029;-75
2023/12/13 04:50:57;;;;;;;13.63;6.57;;;;;;;6.75;63.69;98637.53;5034539;28;20038;-73
2023/12/13 04:53:22;;;;;;;13.23;7.07;;;;;;;6.76;63.93;98635.81;5017653;28;20048;-75
2023/12/13 04:55:48;;;;;;;7.97;5.13;;;;;;;6.94;68.81;98639.84;5019145;28;20135;-76
2023/12/13 04:58:13;;;;;;;15.88;5.75;;;;;;;7.03;68.54;98635.81;5033794;28;20025;-78
2023/12/13 05:00:39;;;;;;;10.88;5.68;;;;;;;7.03;67.19;98628.03;5017563;28;20499;-75
2023/12/13 05:03:04;;;;;;;7.30;5.13;;;;;;;7.12;69.89;98627.47;5017343;28;20041;-75
2023/12/13 05:05:30;;;;;;;7.57;5.00;;;;;;;7.18;68.88;98627.06;5016739;28;20072;-74
2023/12/13 05:07:55;;;;;;;8.07;4.95;;;;;;;7.17;67.48;98628.00;5017294;28;20037;-75
2023/12/13 05:10:21;;;;;;;14.77;4.47;;;;;;;7.46;72.14;98627.03;5038557;28;20063;-76
2023/12/13 05:12:46;;;;;;;9.43;4.50;;;;;;;7.52;72.10;98634.44;5050237;28;20072;-79
2023/12/13 05:15:12;;;;;;;6.78;4.00;;;;;;;7.79;74.51;98644.78;5019090;28;20048;-76
2023/12/13 05:17:37;;;;;;;7.25;3.90;;;;;;;8.02;75.29;98638.06;5034859;28;20033;-75
2023/12/13 05:20:04;;;;;;;7.53;4.10;;;;;;;8.11;72.63;98655.63;5033948;28;20056;-80
2023/12/13 05:22:29;;;;;;;7.03;4.20;;;;;;;8.07;70.87;98669.75;5016374;28;20030;-77
2023/12/13 05:24:55;;;;;;;9.00;5.00;;;;;;;8.02;69.77;98660.59;5017275;28;20048;-79
2023/12/13 05:27:20;;;;;;;9.40;4.18;;;;;;;7.96;69.75;98661.84;5032992;28;20029;-78
2023/12/13 05:29:46;;;;;;;8.25;4.70;;;;;;;7.90;69.45;98652.69;5017762;28;20384;-78
2023/12/13 05:32:11;;;;;;;7.93;4.30;;;;;;;7.86;69.77;98650.38;5034134;28;20037;-78
2023/12/13 05:34:37;;;;;;;7.80;4.38;;;;;;;7.81;69.15;98632.50;5066995;28;20508;-79
2023/12/13 05:37:05;;;;;;;6.93;4.50;;;;;;;7.78;69.55;98617.97;5032604;28;20061;-76
2023/12/13 05:39:34;;;;;;;8.55;4.75;;;;;;;7.76;69.21;98616.41;5033203;28;20037;-73
2023/12/13 05:41:59;;;;;;;10.25;4.90;;;;;;;7.75;69.34;98619.94;5032427;28;20115;-71
2023/12/13 05:44:25;;;;;;;7.65;4.50;;;;;;;7.76;69.43;98624.19;5025899;28;20529;-70
2023/12/13 05:46:50;;;;;;;9.10;4.70;;;;;;;7.78;69.39;98624.94;5013775;28;20021;-71
2023/12/13 05:49:16;;;;;;;11.52;5.45;;;;;;;7.78;68.65;98622.34;5029733;28;20037;-72
2023/12/13 05:51:41;;;;;;;9.88;5.05;;;;;;;7.83;68.96;98616.81;5032790;28;20041;-70
2023/12/13 05:54:07;;;;;;;8.23;4.82;;;;;;;7.90;68.68;98616.28;5032911;28;20033;-70
2023/12/13 05:56:32;;;;;;;7.75;5.40;;;;;;;7.93;68.43;98623.88;5048849;28;20485;-69
2023/12/13 05:58:58;;;;;;;9.23;5.70;;;;;;;7.96;68.17;98639.28;5033088;28;20040;-73
2023/12/13 06:01:23;;;;;;;7.93;4.90;;;;;;;7.95;68.29;98650.63;5016432;28;20068;-72
2023/12/13 06:03:49;;;;;;;10.05;6.20;;;;;;;7.94;68.55;98648.13;5065538;28;20045;-77
2023/12/13 06:06:14;;;;;;;10.52;5.57;;;;;;;7.93;68.08;98626.50;5016076;28;20025;-75
2023/12/13 06:08:41;;;;;;;11.07;5.85;;;;;;;8.01;68.11;98638.16;5032682;28;20025;-74
2023/12/13 06:11:07;;;;;;;10.45;6.00;;;;;;;8.03;68.01;98642.28;5015133;28;20033;-75
2023/12/13 06:13:33;;;;;;;15.55;5.88;;;;;;;8.02;68.00;98621.59;5016116;28;20485;-73
2023/12/13 06:15:58;;;;;;;8.73;5.50;;;;;;;8.05;67.86;98629.19;5032387;28;20076;-74
2023/12/13 06:18:24;;;;;;;10.95;5.82;;;;;;;8.07;67.31;98625.56;5032502;28;20461;-74
2023/12/13 06:20:49;;;;;;;10.15;5.10;;;;;;;8.16;67.58;98647.53;5033144;28;20400;-74
2023/12/13 06:23:15;;;;;;;11.75;6.15;;;;;;;8.19;67.24;98633.47;5065353;28;20047;-76
2023/12/13 06:25:40;;;;;;;10.38;6.03;;;;;;;8.29;67.61;98631.91;5015473;28;20117;-74
2023/12/13 06:28:06;;;;;;;13.35;6.63;;;;;;;8.38;67.59;98622.63;5031912;28;20045;-73
2023/12/13 06:30:31;;;;;;;10.88;6.50;;;;;;;8.41;67.13;98605.06;5065034;28;20045;-75
2023/12/13 06:32:57;;;;;;;10.30;5.97;;;;;;;8.49;67.29;98604.53;5032399;28;20053;-75
2023/12/13 06:35:22;;;;;;;9.77;6.15;;;;;;;8.65;67.12;98575.66;5032307;28;20034;-75
2023/12/13 06:37:48;;;;;;;9.90;6.72;;;;;;;8.84;66.80;98564.81;5032252;28;20033;-73
2023/12/13 06:40:14;;;;;;;10.25;6.20;;;;;;;9.64;65.21;98578.94;5031747;28;20033;-75
2023/12/13 06:42:41;;;;;;;15.55;7.25;;;;;;;10.00;64.76;98580.53;5031807;28;20402;-76
2023/12/13 06:45:07;;;;;;;12.45;6.97;;;;;;;10.83;63.62;98578.47;5048260;28;20076;-74
2023/12/13 06:47:32;;;;;;;13.75;7.50;;;;;;;11.78;62.86;98588.22;5031806;28;20175;-75
2023/12/13 06:49:58;;;;;;;12.02;7.20;;;;;;;12.42;61.82;98602.84;5065688;28;20517;-76
2023/12/13 06:52:23;;;;;;;13.77;7.40;;;;;;;12.81;61.15;98602.16;5048847;28;20504;-74
2023/12/13 06:54:49;;;;;;;13.25;8.00;;;;;;;12.64;61.25;98609.69;5015182;28;20095;-76
2023/12/13 06:57:16;;;;;;;13.48;8.55;;;;;;;12.43;61.49;98622.84;5032109;28;20021;-74
2023/12/13 06:59:42;;;;;;;15.10;9.10;;;;;;;12.55;61.19;98622.75;5032891;28;20040;-74
2023/12/13 07:02:07;;;;;;;19.05;9.65;;;;;;;12.60;61.10;98633.66;5048229;28;20041;-76
2023/12/13 07:04:33;;;;;;;14.80;8.95;;;;;;;12.50;61.52;98636.22;5031493;28;20036;-78
2023/12/13 07:07:01;;;;;;;18.02;10.32;;;;;;;12.45;61.10;98641.88;5032907;28;20025;-76
2023/12/13 07:09:26;;;;;;;18.80;10.73;;;;;;;12.25;61.41;98643.53;5031722;28;20132;-75
2023/12/13 07:11:52;;;;;;;19.38;10.82;;;;;;;12.09;61.44;98630.94;5031593;28;20112;-75
2023/12/13 07:14:17;;;;;;;23.00;11.05;;;;;;;11.89;61.57;98616.91;5031743;28;20033;-76
2023/12/13 07:16:43;;;;;;;20.55;11.55;;;;;;;11.81;61.51;98626.31;5031262;28;20133;-74
2023/12/13 07:19:09;;;;;;;17.70;11.00;;;;;;;11.68;61.79;98616.88;5032593;28;20026;-77
2023/12/13 07:21:35;;;;;;;23.67;11.30;;;;;;;11.61;62.42;98602.69;5031597;28;20025;-76
2023/12/13 07:24:00;;;;;;;20.77;10.82;;;;;;;11.55;62.22;98609.22;5031260;28;20399;-74
2023/12/13 07:26:26;;;;;;;18.70;11.48;;;;;;;11.43;62.31;98617.25;5014883;28;20117;-74
2023/12/13 07:28:52;;;;;;;19.65;10.75;;;;;;;11.33;62.10;98623.22;5015237;28;20103;-77
2023/12/13 07:31:18;;;;;;;21.75;11.52;;;;;;;11.15;62.44;98625.53;4999026;28;20041;-78
2023/12/13 07:33:43;;;;;;;19.63;11.10;;;;;;;11.08;62.12;98634.81;5031177;28;20052;-76
2023/12/13 07:36:11;;;;;;;18.23;11.23;;;;;;;10.99;62.38;98615.50;5032485;28;20386;-77
2023/12/13 07:38:36;;;;;;;22.05;12.25;;;;;;;10.90;62.22;98615.41;5014727;28;20382;-76
2023/12/13 07:41:02;;;;;;;18.67;10.63;;;;;;;10.82;62.31;98613.41;5015113;28;20059;-77
2023/12/13 07:43:28;;;;;;;22.90;11.80;;;;;;;10.80;62.31;98605.69;5014530;28;20040;-76
2023/12/13 07:45:54;;;;;;;20.42;12.02;;;;;;;10.76;62.31;98606.88;5014832;28;20025;-76
2023/12/13 07:48:23;;;;;;;22.05;12.10;;;;;;;10.77;62.16;98610.31;5014955;28;20034;-76
2023/12/13 07:50:48;;;;;;;;;;;;;;;10.84;62.17;98596.66;5015568;28;20033;-75
2023/12/13 07:53:14;;;;;;;21.52;11.63;;;;;;;10.87;62.25;98587.75;5064280;28;20398;-76
2023/12/13 07:55:39;;;;;;;20.73;11.63;;;;;;;11.02;62.40;98591.75;5014593;28;20034;-74
2023/12/13 07:58:05;;;;;;;22.33;12.27;;;;;;;11.18;62.20;98580.88;5030748;28;20107;-74
2023/12/13 08:00:30;;;;;;;19.75;11.73;;;;;;;11.45;61.87;98586.56;5032207;28;20370;-75
2023/12/13 08:02:56;;;;;;;21.35;12.15;;;;;;;11.73;61.96;98592.97;5031408;28;20036;-74
2023/12/13 08:05:23;;;;;;;20.33;12.60;;;;;;;12.12;60.84;98588.00;5031055;28;20043;-73
2023/12/13 08:07:48;;;;;;;22.23;12.57;;;;;;;12.47;60.84;98581.53;5030834;28;20103;-75
2023/12/13 08:10:14;;;;;;;25.00;12.65;;;;;;;12.73;60.03;98588.88;5014708;28;20069;-75
2023/12/13 08:12:42;;;;;;;19.55;12.13;;;;;;;13.11;59.77;98598.63;5032144;28;20080;-74
2023/12/13 08:15:09;;;;;;;26.23;12.32;;;;;;;13.29;59.19;98582.22;5031112;28;20552;-75
2023/12/13 08:17:35;;;;;;;19.63;11.77;;;;;;;13.46;58.50;98584.16;5014309;28;20026;-75
2023/12/13 08:20:00;;;;;;;19.95;11.65;;;;;;;13.71;57.81;98560.91;5032111;28;20036;-75
2023/12/13 08:22:26;;;;;;;26.00;11.95;;;;;;;13.98;57.47;98554.09;5014223;28;20049;-75
2023/12/13 08:24:52;;;;;;;17.58;12.00;;;;;;;14.27;56.61;98575.81;5031090;28;20378;-74
2023/12/13 08:27:17;;;;;;;19.20;10.70;;;;;;;14.54;56.13;98573.34;5014557;28;20093;-77
2023/12/13 08:29:43;;;;;;;17.15;10.77;;;;;;;14.73;55.59;98575.91;5030279;28;20057;-74
2023/12/13 08:32:08;;;;;;;19.40;11.23;;;;;;;14.92;55.22;98571.50;5031851;28;20029;-74
2023/12/13 08:34:36;;;;;;;18.13;10.82;;;;;;;15.36;54.60;98575.03;5030542;28;20029;-74
2023/12/13 08:37:02;;;;;;;20.15;11.60;;;;;;;15.48;54.11;98561.63;5013845;28;20049;-74
2023/12/13 08:39:28;;;;;;;20.75;10.60;;;;;;;15.58;53.68;98558.94;5030209;28;20037;-76
2023/12/13 08:41:53;;;;;;;16.52;10.75;;;;;;;15.87;53.05;98567.34;5014544;28;20037;-75
2023/12/13 08:44:19;;;;;;;17.27;10.75;;;;;;;16.25;52.54;98557.34;5030383;28;20040;-74
2023/12/13 08:46:45;;;;;;;17.35;10.73;;;;;;;16.56;52.04;98537.56;5030697;28;20109;-75
2023/12/13 08:49:11;;;;;;;22.13;11.25;;;;;;;16.80;51.00;98534.97;4997820;28;20129;-74
2023/12/13 08:51:37;;;;;;;18.08;10.50;;;;;;;17.06;50.33;98544.59;5013418;28;20188;-74
2023/12/13 08:54:03;;;;;;;15.30;10.35;;;;;;;17.22;49.73;98545.59;5030445;28;20041;-74
2023/12/13 08:56:29;;;;;;;19.00;11.32;;;;;;;17.22;49.46;98550.88;5031708;28;20029;-75
2023/12/13 08:58:54;;;;;;;21.00;10.60;;;;;;;17.09;49.45;98538.19;5035031;28;20044;-73
2023/12/13 09:01:20;;;;;;;15.77;9.88;;;;;;;16.81;49.62;98525.28;5035211;28;20033;-75
2023/12/13 09:03:46;;;;;;;20.70;11.07;;;;;;;16.65;49.74;98520.78;5034027;28;20052;-74
2023/12/13 09:06:14;;;;;;;19.73;10.55;;;;;;;16.64;49.66;98505.97;5033796;28;20038;-74
2023/12/13 09:08:40;;;;;;;16.55;11.02;;;;;;;16.76;49.48;98512.59;5018295;28;20057;-75
2023/12/13 09:11:05;;;;;;;17.08;10.55;;;;;;;16.82;49.36;98517.22;5033775;28;20361;-76
2023/12/13 09:13:32;;;;;;;19.00;10.82;;;;;;;16.74;49.33;98500.53;5017239;28;20471;-73
2023/12/13 09:15:58;;;;;;;20.60;10.60;;;;;;;16.82;49.33;98490.84;5033558;28;20316;-75
2023/12/13 09:18:23;;;;;;;17.15;10.88;;;;;;;16.80;49.25;98484.09;5033716;28;20481;-75
2023/12/13 09:20:49;;;;;;;16.60;10.45;;;;;;;16.71;49.42;98479.78;5016830;28;20053;-75
2023/12/13 09:23:24;;;;;;;19.30;10.48;;;;;;;16.90;48.85;98474.22;5016924;28;20029;-74
2023/12/13 09:25:50;;;;;;;18.95;11.25;;;;;;;16.88;48.63;98468.28;5017025;28;20102;-75
2023/12/13 09:28:16;;;;;;;19.73;10.82;;;;;;;17.01;48.45;98473.06;5000881;28;20029;-75
2023/12/13 09:30:42;;;;;;;17.98;11.13;;;;;;;16.88;48.54;98470.94;5033375;28;20036;-74
2023/12/13 09:33:07;;;;;;;17.95;10.63;;;;;;;16.95;48.24;98466.66;5016839;28;20028;-75
2023/12/13 09:35:33;;;;;;;16.70;10.57;;;;;;;16.96;48.23;98468.28;5016546;28;20057;-74
2023/12/13 09:37:58;;;;;;;18.67;11.05;;;;;;;16.91;48.31;98456.63;5016712;28;20508;-75
2023/12/13 09:40:24;;;;;;;17.25;11.50;;;;;;;16.91;48.25;98453.97;5016939;28;20045;-76
2023/12/13 09:42:50;;;;;;;24.95;13.75;;;;;;;17.00;47.88;98455.63;5017434;28;20128;-76
2023/12/13 09:45:20;;;;;;;21.52;13.73;;;;;;;17.03;47.69;98457.09;5016670;28;20033;-74
2023/12/13 09:47:45;;;;;;;20.25;12.00;;;;;;;16.94;47.74;98443.91;5016711;28;20397;-75
2023/12/13 09:50:11;;;;;;;28.75;12.80;;;;;;;17.00;47.61;98442.44;5000297;28;20033;-77
2023/12/13 09:52:37;;;;;;;17.67;12.52;;;;;;;17.00;47.46;98437.97;5033061;28;20374;-75
2023/12/13 09:55:03;;;;;;;19.38;11.98;;;;;;;17.01;47.47;98438.81;5033184;28;20030;-74
2023/12/13 09:57:29;;;;;;;17.33;12.00;;;;;;;16.87;47.48;98442.09;5016488;28;20508;-76
2023/12/13 09:59:54;;;;;;;19.35;12.30;;;;;;;16.57;48.06;98432.00;5033131;28;20033;-74
2023/12/13 10:02:20;;;;;;;20.67;12.02;;;;;;;16.35;48.49;98424.72;5033053;28;20107;-75
2023/12/13 10:04:45;;;;;;;21.48;11.52;;;;;;;16.03;48.76;98424.47;5015948;28;20061;-74
2023/12/13 10:07:11;;;;;;;19.92;11.82;;;;;;;15.78;49.63;98428.00;5000382;28;20029;-75
2023/12/13 10:09:37;;;;;;;19.63;11.00;;;;;;;15.55;49.87;98436.41;5033003;28;20041;-77
2023/12/13 10:12:04;;;;;;;20.95;12.73;;;;;;;15.25;50.35;98435.06;4999697;28;20037;-74
2023/12/13 10:14:30;;;;;;;23.80;12.57;;;;;;;15.00;50.92;98432.25;5016186;28;20052;-75
2023/12/13 10:16:56;;;;;;;17.30;11.13;;;;;;;14.83;51.35;98436.56;5032727;28;20033;-76
2023/12/13 10:19:21;;;;;;;18.45;11.50;;;;;;;14.70;51.50;98442.19;5015956;28;20040;-75
2023/12/13 10:21:49;;;;;;;17.73;11.77;;;;;;;14.57;51.59;98434.66;5033500;28;20041;-75
2023/12/13 10:24:15;;;;;;;;;;;;;;;14.48;51.93;98433.78;5032850;28;20032;-73
2023/12/13 10:26:41;;;;;;;19.45;10.82;;;;;;;14.37;52.18;98422.66;5032671;28;19908;-75
2023/12/13 10:29:07;;;;;;;19.75;11.45;;;;;;;14.25;52.38;98419.44;5031961;28;20493;-75
2023/12/13 10:31:33;;;;;;;20.67;12.40;;;;;;;14.16;52.64;98418.50;5033808;28;20400;-74
2023/12/13 10:33:59;;;;;;;21.85;12.10;;;;;;;14.09;52.58;98412.22;5033271;28;20033;-74
2023/12/13 10:36:27;;;;;;;23.40;13.13;;;;;;;14.09;52.60;98402.53;5032042;28;20049;-75
2023/12/13 10:38:54;;;;;;;21.80;12.23;;;;;;;14.01;52.82;98404.22;5032151;28;20168;-74
2023/12/13 10:41:28;;;;;;;23.08;12.38;;;;;;;13.90;52.85;98398.22;5015930;28;20032;-76
2023/12/13 10:43:55;;;;;;;20.02;12.60;;;;;;;13.78;53.23;98415.13;5032017;28;20072;-75
2023/12/13 10:46:21;;;;;;;22.75;12.73;;;;;;;13.67;53.38;98410.88;5032310;28;20087;-76
2023/12/13 10:48:47;;;;;;;23.02;12.55;;;;;;;13.63;53.57;98419.19;5015685;28;20021;-78
2023/12/13 10:51:13;;;;;;;22.02;12.68;;;;;;;13.50;53.83;98409.84;4999093;28;20029;-75
2023/12/13 10:53:38;;;;;;;21.35;13.05;;;;;;;13.41;54.05;98408.09;5015623;28;20142;-75
2023/12/13 10:56:04;;;;;;;22.95;13.00;;;;;;;13.34;54.10;98405.19;5031902;28;20038;-74
2023/12/13 10:58:30;;;;;;;21.17;12.60;;;;;;;13.33;54.13;98410.59;4998959;28;20033;-74
2023/12/13 11:00:55;;;;;;;29.17;13.25;;;;;;;13.27;54.27;98405.91;5033326;28;20044;-74
2023/12/13 11:03:26;;;;;;;21.38;12.52;;;;;;;13.20;54.65;98403.84;5015018;28;20476;-76
2023/12/13 11:05:51;;;;;;;24.20;12.73;;;;;;;13.19;54.77;98393.50;4999854;28;20125;-76
2023/12/13 11:08:19;;;;;;;22.67;12.90;;;;;;;13.13;54.66;98381.78;5031587;28;20488;-74
2023/12/13 11:11:03;;;;;;;20.88;12.80;;;;;;;13.14;54.89;98386.06;5031743;28;20029;-75
2023/12/13 11:13:29;;;;;;;20.77;11.93;;;;;;;13.10;55.02;98374.19;5033305;28;20029;-75
2023/12/13 11:15:54;;;;;;;21.95;12.80;;;;;;;13.07;55.09;98371.88;5031752;28;20033;-75
2023/12/13 11:18:20;;;;;;;20.13;12.38;;;;;;;13.03;54.93;98358.22;4998120;28;20021;-75
2023/12/13 11:20:52;;;;;;;23.25;12.60;;;;;;;13.06;55.41;98361.53;5014533;28;20420;-75
2023/12/13 11:23:26;;;;;;;19.20;12.32;;;;;;;13.03;55.09;98358.22;5031423;28;20089;-75